Terminal Aerodrome Forecast
Issued by NWS Omaha/Valley, NE

Home | Current Version | Previous Version | Text Only | Print | Product List | Glossary On
Versions: 1 2 3 4 5 6 7 8 9 10 11 12 13 14 15 16 17 18 19 20 21 22 23 24 25 26 27 28 29 30 31 32 33 34 35 36 37 38 39
000
FTUS43 KOAX 110520
TAFLNK
TAF
KLNK 110520Z 1106/1206 02008KT P6SM SCT012 OVC035
      TEMPO 1106/1109 OVC012
     FM110900 03007KT P6SM OVC015
      TEMPO 1110/1114 4SM BR OVC007
     FM111500 07005KT 6SM BR OVC015
     FM112100 17010KT P6SM SCT020 BKN050=

USA.gov is the U.S. government's official web portal to all federal, state and local government web resources and services.